Time;durP1;ratioP1;P1;durP2;ratioP2;P2;SDS_P1;SDS_P2;PMS_P1;PMS_P2;Temp;Humidity;BMP_temperature;BMP_pressure;BME280_temperature;BME280_humidity;BME280_pressure;Samples;Min_cycle;Max_cycle;Signal;HPM_P1;HPM_P2
2023/07/24 00:00:18;;;;;;;6.50;4.28;;;;;;;19.18;100.00;100473.13;5012430;28;20041;-68
2023/07/24 00:02:43;;;;;;;5.38;4.07;;;;;;;19.08;100.00;100472.94;5013797;28;20048;-63
2023/07/24 00:05:10;;;;;;;5.97;4.03;;;;;;;19.10;100.00;100463.00;5031486;28;20484;-72
2023/07/24 00:07:35;;;;;;;4.43;3.92;;;;;;;19.06;100.00;100462.34;5031377;28;20140;-68
2023/07/24 00:10:00;;;;;;;5.65;4.20;;;;;;;19.01;100.00;100458.34;5031263;28;20037;-67
2023/07/24 00:12:26;;;;;;;5.70;4.13;;;;;;;19.00;100.00;100457.50;5032580;28;20730;-70
2023/07/24 00:14:52;;;;;;;5.18;3.95;;;;;;;19.01;100.00;100459.19;5031141;28;20037;-70
2023/07/24 00:17:17;;;;;;;5.72;3.85;;;;;;;19.11;100.00;100450.53;5031890;28;20057;-65
2023/07/24 00:19:43;;;;;;;5.50;4.05;;;;;;;19.09;100.00;100455.97;5030642;28;20484;-69
2023/07/24 00:22:08;;;;;;;4.60;4.10;;;;;;;19.12;100.00;100455.75;5031401;28;20468;-70
2023/07/24 00:24:33;;;;;;;5.65;4.07;;;;;;;19.14;100.00;100444.94;5030829;28;20165;-72
2023/07/24 00:26:59;;;;;;;6.45;3.80;;;;;;;19.07;100.00;100455.19;5031138;28;20029;-69
2023/07/24 00:29:24;;;;;;;5.53;4.10;;;;;;;19.10;100.00;100446.13;5032052;28;20029;-71
2023/07/24 00:31:49;;;;;;;5.53;3.97;;;;;;;19.16;100.00;100438.50;5030490;28;20591;-71
2023/07/24 00:34:15;;;;;;;5.97;4.10;;;;;;;19.20;100.00;100433.78;5031050;28;20064;-70
2023/07/24 00:36:40;;;;;;;4.90;4.05;;;;;;;19.05;100.00;100431.28;5031158;28;20033;-69
2023/07/24 00:39:06;;;;;;;7.38;4.43;;;;;;;19.02;100.00;100428.84;5031076;28;20029;-70
2023/07/24 00:41:31;;;;;;;8.35;4.05;;;;;;;19.04;100.00;100426.94;5030539;28;20031;-69
2023/07/24 00:43:56;;;;;;;5.28;4.57;;;;;;;18.97;100.00;100422.16;5031899;28;20033;-69
2023/07/24 00:46:22;;;;;;;5.55;4.00;;;;;;;19.01;100.00;100423.63;5031079;28;20126;-71
2023/07/24 00:48:48;;;;;;;5.10;4.35;;;;;;;19.04;100.00;100416.25;5030031;28;20029;-70
2023/07/24 00:51:13;;;;;;;5.57;4.03;;;;;;;19.04;100.00;100415.38;5031221;28;20028;-72
2023/07/24 00:53:38;;;;;;;7.22;4.88;;;;;;;19.02;100.00;100428.03;5030904;28;20430;-70
2023/07/24 00:56:04;;;;;;;7.68;4.20;;;;;;;18.93;100.00;100414.38;5029105;28;20053;-74
2023/07/24 00:58:30;;;;;;;6.03;3.90;;;;;;;18.88;100.00;100408.56;5030515;28;20025;-71
2023/07/24 01:00:56;;;;;;;6.57;4.32;;;;;;;18.86;100.00;100409.63;5029971;28;20033;-68
2023/07/24 01:03:23;;;;;;;6.25;4.70;;;;;;;18.91;100.00;100407.47;5030734;28;20044;-72
2023/07/24 01:05:48;;;;;;;7.45;4.40;;;;;;;18.96;100.00;100412.47;5029187;28;20707;-70
2023/07/24 01:08:14;;;;;;;5.95;3.97;;;;;;;18.99;100.00;100410.41;5029927;28;20037;-70
2023/07/24 01:10:39;;;;;;;7.97;4.68;;;;;;;19.01;100.00;100419.16;5029732;28;20100;-65
2023/07/24 01:13:06;;;;;;;5.95;4.47;;;;;;;18.96;100.00;100409.78;5030186;28;20079;-70
2023/07/24 01:15:32;;;;;;;6.03;4.75;;;;;;;18.97;100.00;100411.50;5028933;28;20506;-65
2023/07/24 01:18:10;;;;;;;4.25;3.85;;;;;;;18.96;100.00;100407.13;5029727;28;20037;-70
2023/07/24 01:20:43;;;;;;;7.43;4.22;;;;;;;18.88;100.00;100405.91;5030880;28;20032;-62
2023/07/24 01:23:37;;;;;;;9.07;4.38;;;;;;;18.85;100.00;100405.28;5030073;28;20371;-73
2023/07/24 01:26:03;;;;;;;5.78;4.25;;;;;;;18.85;100.00;100403.47;5011194;28;20038;-70
2023/07/24 01:28:28;;;;;;;4.82;4.03;;;;;;;18.86;100.00;100391.81;5009341;28;20041;-66
2023/07/24 01:30:55;;;;;;;5.88;4.03;;;;;;;18.80;100.00;100392.28;5011584;28;20113;-70
2023/07/24 01:33:21;;;;;;;5.05;4.45;;;;;;;18.71;100.00;100392.97;5010358;28;20041;-71
2023/07/24 01:35:50;;;;;;;7.25;3.95;;;;;;;18.76;100.00;100397.00;5009081;28;20507;-72
2023/07/24 01:38:16;;;;;;;4.32;3.58;;;;;;;18.76;100.00;100391.66;5011410;28;20115;-72
2023/07/24 01:40:42;;;;;;;6.00;4.25;;;;;;;18.73;100.00;100385.69;5011977;28;20057;-71
2023/07/24 01:43:07;;;;;;;7.65;4.05;;;;;;;18.76;100.00;100391.66;5029480;28;20041;-73
2023/07/24 01:45:32;;;;;;;6.47;4.20;;;;;;;18.74;100.00;100392.72;5029860;28;20112;-63
2023/07/24 01:47:59;;;;;;;6.50;4.13;;;;;;;18.77;100.00;100384.50;5031227;28;20499;-68
2023/07/24 01:50:25;;;;;;;4.90;4.30;;;;;;;18.82;100.00;100387.69;5029903;28;20040;-69
2023/07/24 01:52:50;;;;;;;7.28;4.50;;;;;;;18.82;100.00;100390.34;5029859;28;20021;-70
2023/07/24 01:55:16;;;;;;;6.10;4.55;;;;;;;18.74;100.00;100392.72;5029414;28;20034;-68
2023/07/24 01:57:41;;;;;;;8.02;4.88;;;;;;;18.78;100.00;100388.88;5030460;28;20476;-75
2023/07/24 02:00:07;;;;;;;7.40;5.38;;;;;;;18.77;100.00;100384.50;5030370;28;20042;-65
2023/07/24 02:02:32;;;;;;;7.05;5.28;;;;;;;18.81;100.00;100376.16;5029418;28;20029;-72
2023/07/24 02:04:57;;;;;;;9.15;4.95;;;;;;;18.80;100.00;100378.94;5030381;28;20021;-73
2023/07/24 02:07:23;;;;;;;11.68;5.57;;;;;;;18.74;100.00;100388.25;5017723;28;20054;-71
2023/07/24 02:09:48;;;;;;;10.43;4.93;;;;;;;18.82;100.00;100375.16;5010501;28;20045;-66
2023/07/24 02:12:14;;;;;;;9.10;5.32;;;;;;;18.84;100.00;100367.03;5009951;28;20029;-71
2023/07/24 02:14:39;;;;;;;7.97;4.65;;;;;;;18.91;100.00;100362.94;5010515;28;20026;-72
2023/07/24 02:17:04;;;;;;;8.45;5.25;;;;;;;18.90;100.00;100350.56;5009190;28;20024;-70
2023/07/24 02:19:30;;;;;;;9.27;4.88;;;;;;;18.87;100.00;100352.63;5009265;28;20041;-72
2023/07/24 02:21:55;;;;;;;7.85;5.15;;;;;;;18.90;100.00;100355.06;5011125;28;20076;-68
2023/07/24 02:24:21;;;;;;;8.68;4.60;;;;;;;18.87;100.00;100353.47;5029940;28;20025;-73
2023/07/24 02:26:46;;;;;;;11.32;4.80;;;;;;;18.82;100.00;100350.31;5029424;28;20028;-72
2023/07/24 02:29:11;;;;;;;8.02;4.90;;;;;;;18.76;100.00;100351.63;5029816;28;20060;-70
2023/07/24 02:31:37;;;;;;;11.50;4.68;;;;;;;18.83;100.00;100344.00;5029726;28;20042;-69
2023/07/24 02:34:02;;;;;;;11.52;5.30;;;;;;;18.72;100.00;100346.66;5028638;28;20475;-69
2023/07/24 02:36:27;;;;;;;10.43;4.32;;;;;;;18.72;100.00;100352.00;5030350;28;20030;-71
2023/07/24 02:38:53;;;;;;;9.45;5.40;;;;;;;18.82;100.00;100350.31;5029026;28;20538;-70
2023/07/24 02:41:18;;;;;;;10.95;5.18;;;;;;;18.79;100.00;100342.53;5029697;28;20037;-71
2023/07/24 02:43:44;;;;;;;10.32;5.10;;;;;;;18.84;100.00;100347.53;5027541;28;20112;-69
2023/07/24 02:46:09;;;;;;;6.03;4.35;;;;;;;18.84;100.00;100336.84;5030991;28;20480;-70
2023/07/24 02:48:34;;;;;;;9.52;5.15;;;;;;;18.77;100.00;100320.44;5029324;28;20104;-71
2023/07/24 02:51:00;;;;;;;7.78;5.15;;;;;;;18.74;100.00;100323.34;5028818;28;20095;-70
2023/07/24 02:53:25;;;;;;;7.32;4.82;;;;;;;18.76;100.00;100330.28;5031074;28;20031;-67
2023/07/24 02:55:50;;;;;;;10.30;5.80;;;;;;;18.71;100.00;100334.25;5028862;28;20029;-68
2023/07/24 02:58:16;;;;;;;8.30;5.00;;;;;;;18.71;100.00;100329.78;5028336;28;20049;-70
2023/07/24 03:00:41;;;;;;;12.80;4.70;;;;;;;18.66;100.00;100332.78;5029531;28;20029;-69
2023/07/24 03:03:06;;;;;;;12.70;4.80;;;;;;;18.67;100.00;100331.81;5028773;28;20379;-67
2023/07/24 03:05:34;;;;;;;14.52;5.22;;;;;;;18.52;100.00;100317.88;5030096;28;20196;-70
2023/07/24 03:07:59;;;;;;;10.68;4.80;;;;;;;18.62;100.00;100310.00;5012744;28;20041;-67
2023/07/24 03:10:24;;;;;;;11.13;5.00;;;;;;;18.66;100.00;100330.13;5010556;28;20463;-70
2023/07/24 03:12:50;;;;;;;8.65;5.35;;;;;;;18.65;100.00;100341.78;5010140;28;20113;-68
2023/07/24 03:15:15;;;;;;;14.45;5.97;;;;;;;18.71;100.00;100348.47;5026219;28;20026;-63
2023/07/24 03:17:40;;;;;;;11.05;5.28;;;;;;;18.70;100.00;100328.09;5010179;28;20113;-70
2023/07/24 03:20:13;;;;;;;12.38;5.68;;;;;;;18.70;100.00;100330.75;5009674;28;20477;-72
2023/07/24 03:22:38;;;;;;;10.60;5.53;;;;;;;18.66;100.00;100339.97;5014285;28;20033;-65
2023/07/24 03:25:04;;;;;;;12.68;6.35;;;;;;;18.62;100.00;100336.69;5027084;28;20484;-70
2023/07/24 03:27:29;;;;;;;9.20;5.50;;;;;;;18.68;100.00;100336.22;5027801;28;20048;-71
2023/07/24 03:29:54;;;;;;;14.18;5.95;;;;;;;18.66;100.00;100327.47;5032038;28;20428;-65
2023/07/24 03:32:20;;;;;;;12.07;6.03;;;;;;;18.64;100.00;100334.75;5032651;28;20029;-69
2023/07/24 03:34:45;;;;;;;11.45;5.32;;;;;;;18.66;100.00;100337.31;5031425;28;20047;-70
2023/07/24 03:37:10;;;;;;;10.82;5.90;;;;;;;18.55;100.00;100330.09;5032932;28;20100;-69
2023/07/24 03:39:36;;;;;;;11.05;5.45;;;;;;;18.56;100.00;100332.66;5031979;28;20072;-72
2023/07/24 03:42:01;;;;;;;11.60;6.38;;;;;;;18.58;100.00;100326.34;5033173;28;20045;-69
2023/07/24 03:44:27;;;;;;;11.50;5.53;;;;;;;18.57;100.00;100328.16;5032147;28;20021;-69
2023/07/24 03:46:52;;;;;;;12.93;5.72;;;;;;;18.57;100.00;100317.47;5032512;28;20036;-69
2023/07/24 03:49:17;;;;;;;13.48;6.57;;;;;;;18.53;100.00;100326.69;5031545;28;20687;-65
2023/07/24 03:51:43;;;;;;;11.32;6.43;;;;;;;18.49;100.00;100326.09;5047302;28;20029;-70
2023/07/24 03:54:08;;;;;;;9.55;5.72;;;;;;;18.50;100.00;100314.44;5031648;28;20460;-70
2023/07/24 03:56:33;;;;;;;9.43;5.85;;;;;;;18.52;100.00;100309.84;5032126;28;20025;-70
2023/07/24 03:58:59;;;;;;;10.10;5.78;;;;;;;18.52;100.00;100309.00;5031646;28;20491;-68
2023/07/24 04:01:24;;;;;;;11.93;5.85;;;;;;;18.44;100.00;100312.25;5032793;28;20029;-69
2023/07/24 04:03:49;;;;;;;14.02;5.85;;;;;;;18.36;100.00;100323.47;5031613;28;20049;-71
2023/07/24 04:06:15;;;;;;;10.43;5.40;;;;;;;18.34;100.00;100311.25;5031408;28;20045;-69
2023/07/24 04:08:40;;;;;;;14.35;5.43;;;;;;;18.29;100.00;100317.78;5030489;28;20026;-67
2023/07/24 04:11:06;;;;;;;10.35;5.30;;;;;;;18.36;100.00;100323.47;5031432;28;20084;-69
2023/07/24 04:13:31;;;;;;;9.32;4.88;;;;;;;18.38;100.00;100321.56;5031158;28;20021;-68
2023/07/24 04:15:58;;;;;;;12.52;5.15;;;;;;;18.33;100.00;100320.22;5031566;28;20116;-68
2023/07/24 04:18:23;;;;;;;10.55;5.18;;;;;;;18.31;100.00;100323.00;5030492;28;20057;-67
2023/07/24 04:20:48;;;;;;;15.50;5.00;;;;;;;18.29;100.00;100322.25;5031202;28;20175;-67
2023/07/24 04:23:14;;;;;;;14.93;4.70;;;;;;;18.29;100.00;100323.13;5031367;28;20034;-69
2023/07/24 04:25:39;;;;;;;15.25;5.07;;;;;;;18.30;100.00;100321.28;5011768;28;20567;-70
2023/07/24 04:28:04;;;;;;;11.60;5.13;;;;;;;18.35;100.00;100319.13;5011943;28;20033;-69
2023/07/24 04:30:30;;;;;;;10.82;5.22;;;;;;;18.41;100.00;100320.47;5025003;28;20017;-69
2023/07/24 04:32:55;;;;;;;13.63;5.18;;;;;;;18.40;100.00;100314.31;5029861;28;20017;-67
2023/07/24 04:35:20;;;;;;;14.10;4.93;;;;;;;18.43;100.00;100319.38;5030389;28;20185;-68
2023/07/24 04:37:46;;;;;;;11.75;4.97;;;;;;;18.40;100.00;100322.31;5030796;28;20480;-69
2023/07/24 04:40:11;;;;;;;15.88;5.78;;;;;;;18.44;100.00;100321.09;5030434;28;20047;-69
2023/07/24 04:42:37;;;;;;;15.35;5.13;;;;;;;18.46;100.00;100320.13;5031904;28;20112;-69
2023/07/24 04:45:03;;;;;;;11.13;4.97;;;;;;;18.44;100.00;100318.44;5021899;28;20030;-70
2023/07/24 04:47:28;;;;;;;13.68;4.40;;;;;;;18.46;100.00;100315.66;5028771;28;20053;-63
2023/07/24 04:49:55;;;;;;;13.32;5.18;;;;;;;18.43;100.00;100313.22;5029685;28;20545;-69
2023/07/24 04:52:20;;;;;;;11.95;4.78;;;;;;;18.46;100.00;100315.66;5030911;28;20072;-72
2023/07/24 04:54:45;;;;;;;10.55;4.63;;;;;;;18.48;100.00;100312.88;5030127;28;20041;-68
2023/07/24 04:57:11;;;;;;;10.45;4.45;;;;;;;18.55;100.00;100317.59;5035747;28;20044;-72
2023/07/24 04:59:36;;;;;;;10.23;4.55;;;;;;;18.59;100.00;100315.56;5037813;28;20434;-71
2023/07/24 05:02:02;;;;;;;10.25;4.43;;;;;;;18.73;100.00;100322.53;5042822;28;20151;-71
2023/07/24 05:04:27;;;;;;;14.75;4.70;;;;;;;18.72;100.00;100323.47;5032068;28;20032;-66
2023/07/24 05:06:52;;;;;;;13.70;4.75;;;;;;;18.76;100.00;100326.75;5027465;28;20069;-71
2023/07/24 05:09:18;;;;;;;11.18;4.20;;;;;;;18.79;100.00;100326.53;5028294;28;20033;-71
2023/07/24 05:11:44;;;;;;;13.30;4.28;;;;;;;18.72;100.00;100319.97;5030202;28;20116;-72
2023/07/24 05:14:10;;;;;;;14.23;4.78;;;;;;;18.78;100.00;100327.50;5029705;28;20470;-73
2023/07/24 05:16:35;;;;;;;17.67;4.80;;;;;;;18.82;100.00;100324.44;5030664;28;20017;-73
2023/07/24 05:19:01;;;;;;;12.13;3.72;;;;;;;18.77;100.00;100320.44;5028865;28;20564;-66
2023/07/24 05:21:26;;;;;;;15.32;4.63;;;;;;;18.89;100.00;100321.31;5030469;28;20044;-72
2023/07/24 05:23:51;;;;;;;14.65;3.95;;;;;;;18.88;100.00;100331.16;5029515;28;20052;-70
2023/07/24 05:26:17;;;;;;;14.10;4.35;;;;;;;18.97;100.00;100324.25;5030481;28;20037;-70
2023/07/24 05:28:42;;;;;;;10.50;4.05;;;;;;;18.99;100.00;100324.13;5029937;28;20124;-64
2023/07/24 05:31:08;;;;;;;9.15;4.00;;;;;;;18.98;100.00;100330.44;5030010;28;20029;-74
2023/07/24 05:33:33;;;;;;;10.57;3.50;;;;;;;18.98;100.00;100319.75;5029687;28;20032;-72
2023/07/24 05:35:59;;;;;;;13.32;4.15;;;;;;;19.05;100.00;100323.63;5028735;28;20088;-62
2023/07/24 05:38:25;;;;;;;8.25;3.60;;;;;;;19.17;100.00;100316.50;5030358;28;20025;-73
2023/07/24 05:40:56;;;;;;;14.73;4.40;;;;;;;19.31;100.00;100318.09;5029648;28;20021;-72
2023/07/24 05:43:21;;;;;;;9.52;3.50;;;;;;;19.41;100.00;100310.19;5030089;28;20032;-71
2023/07/24 05:45:47;;;;;;;8.15;3.72;;;;;;;19.50;100.00;100314.81;5027930;28;20029;-72
2023/07/24 05:48:12;;;;;;;8.00;3.45;;;;;;;19.52;100.00;100317.34;5012939;28;20029;-70
2023/07/24 05:50:37;;;;;;;12.73;3.50;;;;;;;19.60;100.00;100322.94;5049307;28;20108;-71
2023/07/24 05:53:03;;;;;;;8.63;3.30;;;;;;;19.63;100.00;100325.34;5049031;28;20056;-73
2023/07/24 05:55:28;;;;;;;8.20;3.42;;;;;;;19.64;100.00;100320.84;5050214;28;20028;-62
2023/07/24 05:57:53;;;;;;;8.52;3.70;;;;;;;19.72;100.00;100333.59;5047541;28;20456;-66
2023/07/24 06:00:19;;;;;;;9.00;3.35;;;;;;;19.81;100.00;100322.16;5049434;28;20033;-69
2023/07/24 06:02:44;;;;;;;11.93;3.50;;;;;;;19.83;100.00;100325.53;5029176;28;20025;-69
2023/07/24 06:05:10;;;;;;;6.97;3.17;;;;;;;19.97;100.00;100321.75;5028063;28;20021;-67
2023/07/24 06:07:35;;;;;;;7.93;3.38;;;;;;;20.05;100.00;100329.19;5031129;28;20032;-67
2023/07/24 06:10:01;;;;;;;12.07;3.63;;;;;;;20.04;100.00;100330.13;5029286;28;20029;-71
2023/07/24 06:12:26;;;;;;;16.20;3.88;;;;;;;20.19;100.00;100326.19;5031839;28;20486;-70
2023/07/24 06:14:51;;;;;;;7.47;3.63;;;;;;;20.10;100.00;100334.97;5029354;28;20077;-67
2023/07/24 06:17:17;;;;;;;9.07;3.45;;;;;;;20.04;100.00;100339.00;5028312;28;20029;-66
2023/07/24 06:19:42;;;;;;;13.73;3.78;;;;;;;20.06;100.00;100341.56;5027810;28;20112;-70
2023/07/24 06:22:07;;;;;;;7.93;3.50;;;;;;;20.03;100.00;100345.34;5028487;28;20049;-71
2023/07/24 06:24:33;;;;;;;5.60;3.33;;;;;;;20.01;100.00;100338.41;5029288;28;20112;-67
2023/07/24 06:26:58;;;;;;;10.63;3.80;;;;;;;20.09;100.00;100341.31;5029215;28;20060;-65
2023/07/24 06:29:24;;;;;;;9.70;4.03;;;;;;;20.23;100.00;100347.34;5018140;28;20033;-72
2023/07/24 06:31:50;;;;;;;9.27;3.55;;;;;;;20.34;100.00;100344.63;4991994;28;20500;-63
2023/07/24 06:34:15;;;;;;;6.20;2.85;;;;;;;20.44;100.00;100345.53;5008169;28;20026;-70
2023/07/24 06:36:40;;;;;;;10.10;3.80;;;;;;;20.58;100.00;100346.22;5009519;28;20087;-71
2023/07/24 06:39:06;;;;;;;10.43;3.00;;;;;;;20.58;100.00;100348.88;5026499;28;20104;-69
2023/07/24 06:41:31;;;;;;;6.43;2.80;;;;;;;20.60;100.00;100346.06;5028462;28;20022;-67
2023/07/24 06:43:56;;;;;;;11.35;3.67;;;;;;;20.67;100.00;100348.13;5028190;28;20029;-73
2023/07/24 06:46:22;;;;;;;8.00;3.20;;;;;;;20.60;100.00;100357.66;5031264;28;20033;-70
2023/07/24 06:48:47;;;;;;;15.40;4.18;;;;;;;20.60;100.00;100354.09;5047618;28;20032;-73
2023/07/24 06:51:12;;;;;;;11.07;3.50;;;;;;;20.55;100.00;100357.16;5048759;28;20032;-69
2023/07/24 06:53:38;;;;;;;10.82;3.50;;;;;;;20.82;100.00;100353.13;5048785;28;20021;-68
2023/07/24 06:56:03;;;;;;;9.18;3.20;;;;;;;21.01;100.00;100351.59;5028600;28;20033;-71
2023/07/24 06:58:29;;;;;;;11.05;3.15;;;;;;;20.91;100.00;100352.38;5027883;28;20028;-65
2023/07/24 07:00:54;;;;;;;10.65;3.35;;;;;;;20.75;100.00;100347.47;5028658;28;20040;-69
2023/07/24 07:03:19;;;;;;;10.88;3.38;;;;;;;20.63;100.00;100354.72;5028330;28;20025;-69
2023/07/24 07:05:44;;;;;;;9.55;3.30;;;;;;;20.61;100.00;100348.63;5028150;28;20037;-69
2023/07/24 07:08:10;;;;;;;6.57;3.50;;;;;;;20.78;100.00;100346.34;5028820;28;20112;-69
2023/07/24 07:10:35;;;;;;;10.45;3.00;;;;;;;20.86;100.00;100346.53;5028747;28;20028;-68
2023/07/24 07:13:01;;;;;;;9.20;3.05;;;;;;;20.93;100.00;100344.22;5028377;28;20104;-70
2023/07/24 07:15:26;;;;;;;9.90;3.58;;;;;;;21.01;100.00;100341.72;5028594;28;20056;-69
2023/07/24 07:17:51;;;;;;;9.52;3.28;;;;;;;21.23;100.00;100344.34;5027107;28;20032;-69
2023/07/24 07:20:17;;;;;;;10.23;3.25;;;;;;;21.32;100.00;100335.53;5029044;28;20103;-70
2023/07/24 07:22:42;;;;;;;9.57;3.05;;;;;;;21.51;100.00;100332.06;5027854;28;20029;-70
2023/07/24 07:25:07;;;;;;;9.63;3.25;;;;;;;21.57;100.00;100338.69;5030503;28;20041;-72
2023/07/24 07:27:33;;;;;;;10.63;3.08;;;;;;;21.62;100.00;100331.13;5027989;28;20025;-70
2023/07/24 07:29:58;;;;;;;10.75;3.55;;;;;;;21.73;100.00;100334.66;5032136;28;20035;-68
2023/07/24 07:32:24;;;;;;;10.77;3.28;;;;;;;21.96;100.00;100325.41;5027248;28;20113;-67
2023/07/24 07:34:50;;;;;;;9.00;3.63;;;;;;;21.92;100.00;100326.69;5027442;28;20022;-69
2023/07/24 07:37:15;;;;;;;10.18;3.15;;;;;;;21.89;100.00;100313.56;5027479;28;20389;-65
2023/07/24 07:39:40;;;;;;;12.73;3.55;;;;;;;21.85;100.00;100320.16;5027967;28;20018;-69
2023/07/24 07:42:06;;;;;;;9.65;3.50;;;;;;;21.87;100.00;100315.53;5027483;28;20135;-69
2023/07/24 07:44:31;;;;;;;10.05;3.28;;;;;;;21.78;100.00;100313.66;5027172;28;20040;-71
2023/07/24 07:46:56;;;;;;;7.88;2.97;;;;;;;21.94;100.00;100311.28;5027443;28;20033;-66
2023/07/24 07:49:22;;;;;;;14.10;3.80;;;;;;;22.01;100.00;100310.72;5027515;28;20062;-70
2023/07/24 07:51:47;;;;;;;9.30;3.20;;;;;;;21.91;100.00;100322.28;5027641;28;20034;-73
2023/07/24 07:54:13;;;;;;;5.32;3.33;;;;;;;21.82;100.00;100318.63;5028105;28;20113;-69
2023/07/24 07:56:38;;;;;;;11.05;3.05;;;;;;;21.66;100.00;100331.66;5027332;28;20468;-69
2023/07/24 07:59:03;;;;;;;7.30;3.30;;;;;;;21.50;100.00;100327.69;5026814;28;20030;-69
2023/07/24 08:01:30;;;;;;;11.18;3.13;;;;;;;21.40;100.00;100335.69;5024573;28;20092;-68
2023/07/24 08:03:55;;;;;;;10.00;3.65;;;;;;;21.33;100.00;100339.88;5016367;28;20052;-68
2023/07/24 08:06:21;;;;;;;8.93;3.08;;;;;;;21.25;100.00;100334.38;5025742;28;20077;-68
2023/07/24 08:08:47;;;;;;;9.05;3.40;;;;;;;21.41;100.00;100332.03;5027353;28;20064;-65
2023/07/24 08:11:12;;;;;;;6.95;3.40;;;;;;;21.48;100.00;100326.97;5026236;28;20028;-67
2023/07/24 08:13:37;;;;;;;11.32;3.42;;;;;;;21.57;100.00;100341.38;5024762;28;20040;-67
2023/07/24 08:16:03;;;;;;;10.90;4.03;;;;;;;21.85;100.00;100325.53;5026073;28;20038;-67
2023/07/24 08:18:31;;;;;;;9.60;4.10;;;;;;;22.04;100.00;100321.19;5028227;28;20029;-67
2023/07/24 08:20:57;;;;;;;11.43;4.53;;;;;;;22.11;100.00;100325.00;5030338;28;20044;-70
2023/07/24 08:23:22;;;;;;;10.05;5.13;;;;;;;21.73;100.00;100326.63;5041912;28;20033;-69
2023/07/24 08:25:54;;;;;;;10.93;5.13;;;;;;;21.96;100.00;100328.09;5032513;28;20342;-67
2023/07/24 08:28:20;;;;;;;15.27;5.28;;;;;;;22.19;100.00;100330.50;5029790;28;20471;-67
2023/07/24 08:30:47;;;;;;;8.02;4.65;;;;;;;22.33;100.00;100328.38;5030503;28;20045;-69
2023/07/24 08:33:12;;;;;;;9.68;4.80;;;;;;;22.28;100.00;100328.81;5031455;28;20452;-67
2023/07/24 08:35:37;;;;;;;9.85;4.13;;;;;;;22.17;100.00;100332.50;5030354;28;20069;-68
2023/07/24 08:38:03;;;;;;;10.15;4.35;;;;;;;22.37;100.00;100329.81;5030067;28;20071;-68
2023/07/24 08:40:28;;;;;;;13.40;4.75;;;;;;;22.36;100.00;100332.63;5030845;28;20025;-66
2023/07/24 08:42:54;;;;;;;11.32;4.10;;;;;;;22.39;100.00;100330.50;5030884;28;20679;-68
2023/07/24 08:45:20;;;;;;;10.98;5.13;;;;;;;22.31;100.00;100322.31;5036277;28;20034;-70
2023/07/24 08:47:45;;;;;;;7.65;3.90;;;;;;;22.24;100.00;100322.03;5028547;28;20048;-69
2023/07/24 08:50:12;;;;;;;14.38;4.57;;;;;;;22.24;100.00;100321.19;5032677;28;20018;-67
2023/07/24 08:52:42;;;;;;;10.90;3.90;;;;;;;22.25;100.00;100322.88;5029925;28;20025;-68
2023/07/24 08:55:08;;;;;;;10.45;4.00;;;;;;;22.32;100.00;100315.97;5031454;28;20021;-70
2023/07/24 08:57:34;;;;;;;10.65;4.15;;;;;;;22.55;100.00;100310.28;5029203;28;20030;-68
2023/07/24 09:00:04;;;;;;;7.90;3.90;;;;;;;22.77;100.00;100319.88;5030074;28;20068;-69
2023/07/24 09:02:30;;;;;;;9.90;4.05;;;;;;;22.70;100.00;100310.72;5027432;28;20738;-68
2023/07/24 09:04:55;;;;;;;11.10;3.78;;;;;;;23.12;100.00;100314.84;5028754;28;20372;-68
2023/07/24 09:07:21;;;;;;;7.18;3.20;;;;;;;23.37;100.00;100304.44;5030088;28;20037;-71
2023/07/24 09:09:49;;;;;;;8.25;3.75;;;;;;;23.22;100.00;100312.09;5033181;28;20393;-71
2023/07/24 09:12:15;;;;;;;7.75;3.78;;;;;;;22.85;100.00;100308.44;5031436;28;20508;-72
2023/07/24 09:14:40;;;;;;;12.07;4.20;;;;;;;22.62;100.00;100299.84;5029673;28;20021;-71
2023/07/24 09:17:07;;;;;;;12.43;4.18;;;;;;;22.43;100.00;100307.75;5027896;28;20396;-68
2023/07/24 09:19:33;;;;;;;11.30;4.28;;;;;;;22.34;100.00;100305.94;5028374;28;20060;-66
2023/07/24 09:22:12;;;;;;;12.38;3.90;;;;;;;22.66;100.00;100304.78;5025904;28;20063;-64
2023/07/24 09:24:38;;;;;;;9.57;4.05;;;;;;;22.78;100.00;100297.41;5027836;28;20167;-66
2023/07/24 09:27:07;;;;;;;8.35;3.83;;;;;;;23.22;100.00;100304.91;5027629;28;20546;-70
2023/07/24 09:29:33;;;;;;;8.80;4.13;;;;;;;23.42;100.00;100298.59;5028593;28;20056;-65
2023/07/24 09:31:59;;;;;;;9.25;3.60;;;;;;;23.49;99.95;100297.00;5029897;28;20497;-65
2023/07/24 09:34:25;;;;;;;9.88;3.08;;;;;;;23.33;99.27;100293.09;5030246;28;20310;-71
2023/07/24 09:36:51;;;;;;;5.60;2.72;;;;;;;23.28;98.24;100294.53;5041030;28;20052;-71
2023/07/24 09:39:23;;;;;;;5.75;2.50;;;;;;;23.22;98.65;100285.22;5049772;28;20097;-69
2023/07/24 09:41:49;;;;;;;7.53;3.08;;;;;;;23.21;100.00;100292.44;5034085;28;20072;-67
2023/07/24 09:44:15;;;;;;;6.38;2.67;;;;;;;23.35;99.76;100301.00;5028309;28;20021;-70
2023/07/24 09:46:41;;;;;;;5.70;2.70;;;;;;;23.67;98.24;100288.97;5027084;28;20385;-69
2023/07/24 09:49:06;;;;;;;8.00;2.67;;;;;;;23.73;99.62;100295.59;5025013;28;20119;-73
2023/07/24 09:51:32;;;;;;;7.03;2.60;;;;;;;23.62;97.05;100293.13;5046151;28;20021;-70
2023/07/24 09:54:16;;;;;;;7.47;2.75;;;;;;;23.22;96.46;100301.34;5048109;28;20451;-69
2023/07/24 09:56:42;;;;;;;4.40;2.67;;;;;;;23.19;97.80;100293.59;5041708;28;20056;-69
2023/07/24 09:59:09;;;;;;;9.60;2.58;;;;;;;23.00;98.46;100298.06;5044407;28;20135;-67
2023/07/24 10:01:34;;;;;;;9.75;2.88;;;;;;;23.16;98.37;100291.19;5048998;28;20028;-70
2023/07/24 10:04:00;;;;;;;8.70;2.80;;;;;;;23.25;98.81;100301.06;5047228;28;20029;-68
2023/07/24 10:06:26;;;;;;;8.15;2.47;;;;;;;23.12;99.09;100297.88;5048473;28;20045;-67
2023/07/24 10:08:52;;;;;;;8.27;3.05;;;;;;;22.87;100.00;100303.72;5046992;28;20036;-68
2023/07/24 10:11:18;;;;;;;8.70;2.83;;;;;;;22.86;100.00;100283.25;5031703;28;20124;-71
2023/07/24 10:13:43;;;;;;;6.78;2.70;;;;;;;22.93;100.00;100292.41;5044316;28;20021;-72
2023/07/24 10:16:09;;;;;;;8.80;2.67;;;;;;;23.02;100.00;100295.22;5028686;28;20576;-71
2023/07/24 10:18:35;;;;;;;6.20;2.80;;;;;;;23.04;100.00;100296.75;5028609;28;20419;-72
2023/07/24 10:21:05;;;;;;;7.60;2.42;;;;;;;22.85;99.84;100293.13;5049409;28;20045;-68
2023/07/24 10:44:10;;;;;;;6.43;2.88;;;;;;;24.26;93.87;100282.28;5095284;27;20400;-69
2023/07/24 10:46:40;;;;;;;4.40;2.92;;;;;;;24.50;92.58;100274.56;5085535;28;20028;-69
2023/07/24 10:49:07;;;;;;;8.95;3.30;;;;;;;24.74;92.61;100274.72;5086260;28;20024;-68
2023/07/24 10:51:33;;;;;;;7.40;3.20;;;;;;;25.11;90.33;100272.75;5084781;28;20020;-67
2023/07/24 10:53:59;;;;;;;10.20;3.15;;;;;;;25.32;87.88;100274.19;5080891;28;20424;-66
2023/07/24 10:56:25;;;;;;;5.20;2.50;;;;;;;25.60;86.34;100263.16;5083563;28;20097;-67
2023/07/24 10:58:50;;;;;;;5.88;2.90;;;;;;;25.40;85.53;100275.22;5082820;28;20036;-70
2023/07/24 11:01:17;;;;;;;10.93;2.78;;;;;;;25.31;87.07;100277.06;5084101;28;20056;-67
2023/07/24 11:03:43;;;;;;;5.18;2.85;;;;;;;25.13;85.80;100280.66;5084494;28;20486;-72
2023/07/24 11:06:19;;;;;;;3.92;2.58;;;;;;;24.98;86.11;100283.13;5084721;28;20036;-70
2023/07/24 11:08:52;;;;;;;3.60;2.60;;;;;;;25.03;84.75;100279.94;5083244;28;20024;-70
2023/07/24 11:11:18;;;;;;;5.90;3.25;;;;;;;24.90;84.98;100289.34;5086130;28;20476;-70
2023/07/24 11:13:43;;;;;;;6.22;3.00;;;;;;;24.86;85.43;100296.84;5083842;28;20024;-71
2023/07/24 11:16:08;;;;;;;5.03;2.63;;;;;;;24.82;83.99;100294.63;5082605;28;20414;-72
2023/07/24 11:18:45;;;;;;;6.53;2.90;;;;;;;24.89;83.77;100293.00;5081331;28;20383;-67
2023/07/24 11:21:12;;;;;;;4.03;2.83;;;;;;;24.46;86.39;100293.72;5082422;28;20055;-66
2023/07/24 11:23:37;;;;;;;4.13;2.58;;;;;;;24.18;88.60;100299.25;5081000;28;20040;-74
2023/07/24 11:26:05;;;;;;;7.85;3.10;;;;;;;23.98;89.18;100315.50;5058687;28;20035;-72
2023/07/24 11:28:39;;;;;;;6.82;3.00;;;;;;;24.18;88.93;100301.94;5077107;28;20067;-66